Newstead — VJN3167 — position and weather

sailwx.info

Track history (hours):
 
Tides and Currents Weather Stations Pressure Air Temp Water Temp Dewpoint Dewpoint Depression Visibility Wind Speed Wind Dir Waves Ship Positions

Newstead

Last reported at 2017-Oct-16 22:26 UTC. Time now 2017-Oct-16 22:37 UTC.
Position S 27°23' E 153°09'.

Length 22 m; draft 5.5 m.

Type: Tug. MMSI: 503194600.

Date/timePositionNaut miles runAvg speedWind from/ knotsBaromVisibWave heightAir tempDewpointWater temp
2017-Oct-16 22:26S 27°23' E 153°09'0 0.8
2017-Oct-16 22:00S 27°23' E 153°10'0 0.1
2017-Oct-16 21:30S 27°23' E 153°10'0 0.8
2017-Oct-16 20:59S 27°23' E 153°09'1 0.1
2017-Oct-16 12:10S 27°24' E 153°09'1 5.6
2017-Oct-16 12:00S 27°25' E 153°09'1 0.2
2017-Oct-16 05:25S 27°24' E 153°09'4 4.6
2017-Oct-16 04:35S 27°27' E 153°06'4 0.5
2017-Oct-15 21:26S 27°24' E 153°09'1 3.4
2017-Oct-15 21:00S 27°23' E 153°10'0 0.1
2017-Oct-15 20:29S 27°23' E 153°10'0 0.1
2017-Oct-15 20:00S 27°23' E 153°10'0 0.4
2017-Oct-15 19:30S 27°23' E 153°10'0 0.1
2017-Oct-15 19:00S 27°23' E 153°10'2 0.1
2017-Oct-14 15:47S 27°24' E 153°09'0 0.0
2017-Oct-14 07:37S 27°24' E 153°09'1 2.8
2017-Oct-14 07:06S 27°23' E 153°10'0 0.6
2017-Oct-14 07:00S 27°23' E 153°10'2 3.8
2017-Oct-14 06:30S 27°21' E 153°11'1 2.3
2017-Oct-14 06:00S 27°22' E 153°10'1 1.9
2017-Oct-14 05:26S 27°23' E 153°10'5 7.1
2017-Oct-14 04:45S 27°27' E 153°06'4 1.2
2017-Oct-14 01:42S 27°24' E 153°09'1 7.2
2017-Oct-14 01:30S 27°23' E 153°10'0 0.8
2017-Oct-14 00:59S 27°22' E 153°10'1 3.0
2017-Oct-14 00:30S 27°21' E 153°11'3 0.8
2017-Oct-13 20:27S 27°24' E 153°09'4 7.8
2017-Oct-13 19:58S 27°27' E 153°06'1 0.6
2017-Oct-13 19:08S 27°27' E 153°06'5 7.0
2017-Oct-13 18:29S 27°24' E 153°09'1 2.1
2017-Oct-13 18:00S 27°23' E 153°10'1 1.3
2017-Oct-13 16:54S 27°24' E 153°09'0 0.0
2017-Oct-13 16:27S 27°24' E 153°09'0 0.0
2017-Oct-13 11:38S 27°24' E 153°09'1 6.3
2017-Oct-13 11:30S 27°25' E 153°09'1 0.3
2017-Oct-13 08:42S 27°24' E 153°09'1 5.7
2017-Oct-13 08:29S 27°23' E 153°10'0 0.2
2017-Oct-13 08:00S 27°23' E 153°10'1 1.7
2017-Oct-13 07:18S 27°24' E 153°09'0 0.3
2017-Oct-13 06:11S 27°24' E 153°09'2 5.9
2017-Oct-13 05:55S 27°23' E 153°10'0 0.0
2017-Oct-12 21:23S 27°23' E 153°10'0 0.3
2017-Oct-12 21:00S 27°23' E 153°10'2 3.1
2017-Oct-12 20:30S 27°21' E 153°11'1 1.5
2017-Oct-12 20:00S 27°22' E 153°10'2 2.8
2017-Oct-12 19:11S 27°24' E 153°09'210.3
2017-Oct-12 18:59S 27°22' E 153°10'1 1.2
2017-Oct-12 18:23S 27°22' E 153°11'0 0.0
2017-Oct-12 17:59S 27°22' E 153°11'0 0.0
2017-Oct-12 17:29S 27°22' E 153°11'0 0.0
2017-Oct-12 16:42S 27°22' E 153°11'0 1.2
2017-Oct-12 16:28S 27°22' E 153°10'2 4.0
2017-Oct-12 15:59S 27°24' E 153°09'1 0.9
2017-Oct-12 15:00S 27°24' E 153°09'1 0.2
2017-Oct-12 09:15S 27°23' E 153°09'1 4.2
2017-Oct-12 09:01S 27°23' E 153°10'0 0.0
2017-Oct-12 08:30S 27°23' E 153°10'1 1.5
2017-Oct-12 08:00S 27°23' E 153°10'2 0.5
2017-Oct-12 03:36S 27°21' E 153°11'1 6.7
2017-Oct-12 03:30S 27°22' E 153°10'0 0.7
2017-Oct-12 02:57S 27°22' E 153°10'0 0.0
2017-Oct-12 02:27S 27°22' E 153°10'0 0.0
2017-Oct-12 00:33S 27°22' E 153°10'0 0.7
2017-Oct-12 00:23S 27°22' E 153°10'0 0.1
2017-Oct-11 23:03S 27°22' E 153°10'1 2.4
2017-Oct-11 22:45S 27°23' E 153°10'0 1.0
2017-Oct-11 22:24S 27°22' E 153°10'1 0.6
2017-Oct-11 21:16S 27°22' E 153°11'0 0.4
2017-Oct-11 20:57S 27°22' E 153°11'1 1.1
2017-Oct-11 20:29S 27°21' E 153°11'2 0.1
2017-Oct-10 20:43S 27°23' E 153°09'0 0.0
2017-Oct-10 20:30S 27°23' E 153°09'1 1.8
2017-Oct-10 19:58S 27°22' E 153°10'1 1.9
2017-Oct-10 19:29S 27°22' E 153°11'0 0.0
2017-Oct-10 19:00S 27°22' E 153°11'0 0.0
2017-Oct-10 18:30S 27°22' E 153°11'2 3.6
2017-Oct-10 18:00S 27°23' E 153°09'1 0.1
2017-Oct-10 07:36S 27°24' E 153°09'1 6.6
2017-Oct-10 07:27S 27°23' E 153°10'0 0.0
2017-Oct-09 19:44S 27°23' E 153°10'1 4.5
2017-Oct-09 19:29S 27°22' E 153°10'1 2.4
2017-Oct-09 19:00S 27°23' E 153°10'1 0.2
2017-Oct-09 12:34S 27°24' E 153°09'0 0.0
2017-Oct-09 12:25S 27°24' E 153°09'0 0.0
2017-Oct-08 13:35S 27°24' E 153°09'0 0.0
2017-Oct-08 13:11S 27°24' E 153°09'2 0.2
2017-Oct-08 03:18S 27°22' E 153°10'0 0.1
2017-Oct-08 00:26S 27°22' E 153°10'0 0.1
2017-Oct-07 22:51S 27°22' E 153°10'0 0.6
2017-Oct-07 22:30S 27°23' E 153°10'0 0.0
2017-Oct-07 20:40S 27°23' E 153°10'0 0.6
2017-Oct-07 20:30S 27°23' E 153°10'2 0.4
2017-Oct-07 16:31S 27°24' E 153°09'1 7.4
2017-Oct-07 16:19S 27°23' E 153°10'0 1.1
2017-Oct-07 16:00S 27°22' E 153°10'1 1.3
2017-Oct-07 15:30S 27°22' E 153°10'0 0.4
2017-Oct-07 15:00S 27°22' E 153°10'2 3.3
2017-Oct-07 14:30S 27°23' E 153°09'0 0.0
2017-Oct-07 14:00S 27°23' E 153°09'0 0.0
2017-Oct-07 13:30S 27°23' E 153°09'0 0.0
2017-Oct-07 13:00S 27°23' E 153°09'0 0.0
2017-Oct-07 12:30S 27°23' E 153°09'0 0.0
2017-Oct-07 12:00S 27°23' E 153°09'0 0.0
2017-Oct-07 11:30S 27°23' E 153°09'0 0.0
2017-Oct-07 11:00S 27°23' E 153°09'0 0.0
2017-Oct-07 10:30S 27°23' E 153°09'1 1.3
2017-Oct-07 09:58S 27°23' E 153°10'1 0.5
2017-Oct-07 07:32S 27°24' E 153°09'1 6.1
2017-Oct-07 07:23S 27°23' E 153°09'  
Track history (hours):
 
Tides and Currents Weather Stations Pressure Air Temp Water Temp Dewpoint Dewpoint Depression Visibility Wind Speed Wind Dir Waves Ship Positions

Newstead

Last reported at 2017-Oct-16 22:26 UTC. Time now 2017-Oct-16 22:37 UTC.
Position S 27°23' E 153°09'.

Length 22 m; draft 5.5 m.

Type: Tug. MMSI: 503194600.

Date/timePositionNaut miles runAvg speedWind from/ knotsBaromVisibWave heightAir tempDewpointWater temp
2017-Oct-16 22:26S 27°23' E 153°09'0 0.8
2017-Oct-16 22:00S 27°23' E 153°10'0 0.1
2017-Oct-16 21:30S 27°23' E 153°10'0 0.8
2017-Oct-16 20:59S 27°23' E 153°09'1 0.1
2017-Oct-16 12:10S 27°24' E 153°09'1 5.6
2017-Oct-16 12:00S 27°25' E 153°09'1 0.2
2017-Oct-16 05:25S 27°24' E 153°09'4 4.6
2017-Oct-16 04:35S 27°27' E 153°06'4 0.5
2017-Oct-15 21:26S 27°24' E 153°09'1 3.4
2017-Oct-15 21:00S 27°23' E 153°10'0 0.1
2017-Oct-15 20:29S 27°23' E 153°10'0 0.1
2017-Oct-15 20:00S 27°23' E 153°10'0 0.4
2017-Oct-15 19:30S 27°23' E 153°10'0 0.1
2017-Oct-15 19:00S 27°23' E 153°10'2 0.1
2017-Oct-14 15:47S 27°24' E 153°09'0 0.0
2017-Oct-14 07:37S 27°24' E 153°09'1 2.8
2017-Oct-14 07:06S 27°23' E 153°10'0 0.6
2017-Oct-14 07:00S 27°23' E 153°10'2 3.8
2017-Oct-14 06:30S 27°21' E 153°11'1 2.3
2017-Oct-14 06:00S 27°22' E 153°10'1 1.9
2017-Oct-14 05:26S 27°23' E 153°10'5 7.1
2017-Oct-14 04:45S 27°27' E 153°06'4 1.2
2017-Oct-14 01:42S 27°24' E 153°09'1 7.2
2017-Oct-14 01:30S 27°23' E 153°10'0 0.8
2017-Oct-14 00:59S 27°22' E 153°10'1 3.0
2017-Oct-14 00:30S 27°21' E 153°11'3 0.8
2017-Oct-13 20:27S 27°24' E 153°09'4 7.8
2017-Oct-13 19:58S 27°27' E 153°06'1 0.6
2017-Oct-13 19:08S 27°27' E 153°06'5 7.0
2017-Oct-13 18:29S 27°24' E 153°09'1 2.1
2017-Oct-13 18:00S 27°23' E 153°10'1 1.3
2017-Oct-13 16:54S 27°24' E 153°09'0 0.0
2017-Oct-13 16:27S 27°24' E 153°09'0 0.0
2017-Oct-13 11:38S 27°24' E 153°09'1 6.3
2017-Oct-13 11:30S 27°25' E 153°09'1 0.3
2017-Oct-13 08:42S 27°24' E 153°09'1 5.7
2017-Oct-13 08:29S 27°23' E 153°10'0 0.2
2017-Oct-13 08:00S 27°23' E 153°10'1 1.7
2017-Oct-13 07:18S 27°24' E 153°09'0 0.3
2017-Oct-13 06:11S 27°24' E 153°09'2 5.9
2017-Oct-13 05:55S 27°23' E 153°10'0 0.0
2017-Oct-12 21:23S 27°23' E 153°10'0 0.3
2017-Oct-12 21:00S 27°23' E 153°10'2 3.1
2017-Oct-12 20:30S 27°21' E 153°11'1 1.5
2017-Oct-12 20:00S 27°22' E 153°10'2 2.8
2017-Oct-12 19:11S 27°24' E 153°09'210.3
2017-Oct-12 18:59S 27°22' E 153°10'1 1.2
2017-Oct-12 18:23S 27°22' E 153°11'0 0.0
2017-Oct-12 17:59S 27°22' E 153°11'0 0.0
2017-Oct-12 17:29S 27°22' E 153°11'0 0.0
2017-Oct-12 16:42S 27°22' E 153°11'0 1.2
2017-Oct-12 16:28S 27°22' E 153°10'2 4.0
2017-Oct-12 15:59S 27°24' E 153°09'1 0.9
2017-Oct-12 15:00S 27°24' E 153°09'1 0.2
2017-Oct-12 09:15S 27°23' E 153°09'1 4.2
2017-Oct-12 09:01S 27°23' E 153°10'0 0.0
2017-Oct-12 08:30S 27°23' E 153°10'1 1.5
2017-Oct-12 08:00S 27°23' E 153°10'2 0.5
2017-Oct-12 03:36S 27°21' E 153°11'1 6.7
2017-Oct-12 03:30S 27°22' E 153°10'0 0.7
2017-Oct-12 02:57S 27°22' E 153°10'0 0.0
2017-Oct-12 02:27S 27°22' E 153°10'0 0.0
2017-Oct-12 00:33S 27°22' E 153°10'0 0.7
2017-Oct-12 00:23S 27°22' E 153°10'0 0.1
2017-Oct-11 23:03S 27°22' E 153°10'1 2.4
2017-Oct-11 22:45S 27°23' E 153°10'0 1.0
2017-Oct-11 22:24S 27°22' E 153°10'1 0.6
2017-Oct-11 21:16S 27°22' E 153°11'0 0.4
2017-Oct-11 20:57S 27°22' E 153°11'1 1.1
2017-Oct-11 20:29S 27°21' E 153°11'2 0.1
2017-Oct-10 20:43S 27°23' E 153°09'0 0.0
2017-Oct-10 20:30S 27°23' E 153°09'1 1.8
2017-Oct-10 19:58S 27°22' E 153°10'1 1.9
2017-Oct-10 19:29S 27°22' E 153°11'0 0.0
2017-Oct-10 19:00S 27°22' E 153°11'0 0.0
2017-Oct-10 18:30S 27°22' E 153°11'2 3.6
2017-Oct-10 18:00S 27°23' E 153°09'1 0.1
2017-Oct-10 07:36S 27°24' E 153°09'1 6.6
2017-Oct-10 07:27S 27°23' E 153°10'0 0.0
2017-Oct-09 19:44S 27°23' E 153°10'1 4.5
2017-Oct-09 19:29S 27°22' E 153°10'1 2.4
2017-Oct-09 19:00S 27°23' E 153°10'1 0.2
2017-Oct-09 12:34S 27°24' E 153°09'0 0.0
2017-Oct-09 12:25S 27°24' E 153°09'0 0.0
2017-Oct-08 13:35S 27°24' E 153°09'0 0.0
2017-Oct-08 13:11S 27°24' E 153°09'2 0.2
2017-Oct-08 03:18S 27°22' E 153°10'0 0.1
2017-Oct-08 00:26S 27°22' E 153°10'0 0.1
2017-Oct-07 22:51S 27°22' E 153°10'0 0.6
2017-Oct-07 22:30S 27°23' E 153°10'0 0.0
2017-Oct-07 20:40S 27°23' E 153°10'0 0.6
2017-Oct-07 20:30S 27°23' E 153°10'2 0.4
2017-Oct-07 16:31S 27°24' E 153°09'1 7.4
2017-Oct-07 16:19S 27°23' E 153°10'0 1.1
2017-Oct-07 16:00S 27°22' E 153°10'1 1.3
2017-Oct-07 15:30S 27°22' E 153°10'0 0.4
2017-Oct-07 15:00S 27°22' E 153°10'2 3.3
2017-Oct-07 14:30S 27°23' E 153°09'0 0.0
2017-Oct-07 14:00S 27°23' E 153°09'0 0.0
2017-Oct-07 13:30S 27°23' E 153°09'0 0.0
2017-Oct-07 13:00S 27°23' E 153°09'0 0.0
2017-Oct-07 12:30S 27°23' E 153°09'0 0.0
2017-Oct-07 12:00S 27°23' E 153°09'0 0.0
2017-Oct-07 11:30S 27°23' E 153°09'0 0.0
2017-Oct-07 11:00S 27°23' E 153°09'0 0.0
2017-Oct-07 10:30S 27°23' E 153°09'1 1.3
2017-Oct-07 09:58S 27°23' E 153°10'1 0.5
2017-Oct-07 07:32S 27°24' E 153°09'1 6.1
2017-Oct-07 07:23S 27°23' E 153°09'  

Dump ship's entire track history